Time;durP1;ratioP1;P1;durP2;ratioP2;P2;SDS_P1;SDS_P2;PMS_P1;PMS_P2;Temp;Humidity;BMP_temperature;BMP_pressure;BME280_temperature;BME280_humidity;BME280_pressure;Samples;Min_cycle;Max_cycle;Signal;HPM_P1;HPM_P2
2021/11/25 00:01:26;;;;;;;29.03;16.43;;;;;;;4.76;60.45;96185.75;4992139;28;20283;-70
2021/11/25 00:03:54;;;;;;;27.40;16.17;;;;;;;4.66;60.85;96177.19;4979945;28;20197;-69
2021/11/25 00:06:20;;;;;;;28.70;15.77;;;;;;;4.68;60.37;96181.28;4977819;28;20188;-69
2021/11/25 00:08:45;;;;;;;27.50;14.87;;;;;;;4.74;60.23;96169.50;4992259;28;20432;-71
2021/11/25 00:11:11;;;;;;;24.10;14.77;;;;;;;4.83;60.61;96166.09;4992632;28;20185;-69
2021/11/25 00:13:36;;;;;;;28.23;15.10;;;;;;;4.83;60.34;96162.66;4992261;28;20584;-68
2021/11/25 00:16:02;;;;;;;25.97;15.20;;;;;;;4.86;60.63;96167.56;4993170;28;20192;-69
2021/11/25 00:18:28;;;;;;;28.60;14.60;;;;;;;4.92;60.56;96161.78;4991710;28;20197;-72
2021/11/25 00:20:54;;;;;;;27.23;15.37;;;;;;;4.82;61.01;96156.66;4991789;28;20479;-68
2021/11/25 00:23:19;;;;;;;26.77;16.40;;;;;;;4.93;59.69;96160.84;4994280;28;20232;-68
2021/11/25 00:25:45;;;;;;;29.73;15.70;;;;;;;4.86;60.34;96152.00;4991649;28;20181;-71
2021/11/25 00:28:10;;;;;;;25.93;15.37;;;;;;;4.73;60.19;96147.94;4996667;28;20180;-69
2021/11/25 00:30:36;;;;;;;28.80;16.07;;;;;;;4.72;60.63;96145.50;4992662;28;20184;-70
2021/11/25 00:33:02;;;;;;;27.57;14.33;;;;;;;4.82;60.48;96143.69;4992263;28;20202;-69
2021/11/25 00:35:28;;;;;;;32.47;16.23;;;;;;;4.97;60.04;96148.41;4992689;28;20217;-70
2021/11/25 00:37:54;;;;;;;26.17;15.40;;;;;;;4.95;59.94;96143.34;4992219;28;20428;-70
2021/11/25 00:40:19;;;;;;;30.37;15.63;;;;;;;4.98;60.12;96143.06;4973816;28;20524;-71
2021/11/25 00:42:45;;;;;;;30.17;15.93;;;;;;;4.87;60.20;96144.06;4991536;28;20208;-69
2021/11/25 00:45:12;;;;;;;30.33;16.40;;;;;;;4.97;59.64;96138.81;4991376;28;20207;-69
2021/11/25 00:47:38;;;;;;;29.60;16.80;;;;;;;4.99;59.24;96136.91;4994543;28;20515;-70
2021/11/25 00:50:07;;;;;;;26.00;14.80;;;;;;;4.87;59.36;96144.06;4991053;28;20483;-69
2021/11/25 00:52:33;;;;;;;29.53;15.93;;;;;;;4.66;60.54;96136.50;4993021;28;20432;-69
2021/11/25 00:54:58;;;;;;;25.07;14.40;;;;;;;4.89;60.38;96136.94;4991242;28;20510;-70
2021/11/25 00:57:24;;;;;;;26.63;14.60;;;;;;;5.04;59.37;96139.88;4991091;28;20448;-69
2021/11/25 00:59:51;;;;;;;26.77;15.70;;;;;;;5.12;59.46;96140.94;4991541;28;20181;-69
2021/11/25 01:02:18;;;;;;;29.13;15.50;;;;;;;5.05;59.26;96136.31;4993128;28;20188;-69
2021/11/25 01:04:43;;;;;;;28.07;15.17;;;;;;;5.17;59.32;96130.94;4995496;28;20923;-70
2021/11/25 01:07:10;;;;;;;30.83;16.23;;;;;;;5.12;58.80;96130.56;5004101;28;20566;-70
2021/11/25 01:09:36;;;;;;;27.43;15.63;;;;;;;5.17;59.06;96129.16;4977415;28;20271;-69
2021/11/25 01:12:02;;;;;;;31.47;17.07;;;;;;;4.64;60.49;96133.22;4977967;28;20483;-69
2021/11/25 01:14:29;;;;;;;28.83;15.47;;;;;;;4.79;60.40;96130.16;4995542;28;20217;-69
2021/11/25 01:16:55;;;;;;;27.23;15.37;;;;;;;4.92;60.01;96128.03;5008328;28;20427;-70
2021/11/25 01:19:20;;;;;;;27.43;14.67;;;;;;;5.02;59.59;96115.84;5011776;28;20532;-69
2021/11/25 01:21:46;;;;;;;32.20;17.17;;;;;;;4.91;59.58;96118.66;5005571;28;20253;-70
2021/11/25 01:24:12;;;;;;;32.57;16.20;;;;;;;5.05;59.69;96119.94;4995450;28;20679;-69
2021/11/25 01:26:38;;;;;;;28.10;15.50;;;;;;;5.00;60.02;96122.97;4996584;28;20212;-69
2021/11/25 01:29:03;;;;;;;29.87;15.77;;;;;;;5.12;59.62;96110.59;4997102;28;20189;-69
2021/11/25 01:31:29;;;;;;;30.00;16.70;;;;;;;4.90;60.11;96111.81;5002258;28;20455;-69
2021/11/25 01:33:54;;;;;;;28.80;16.40;;;;;;;4.96;61.00;96102.63;5017822;28;20762;-70
2021/11/25 01:36:20;;;;;;;31.73;16.00;;;;;;;4.79;59.98;96096.41;5012787;28;20226;-70
2021/11/25 01:38:46;;;;;;;28.90;15.97;;;;;;;4.93;60.21;96103.72;4998662;28;20323;-70
2021/11/25 01:41:11;;;;;;;27.80;14.60;;;;;;;4.90;60.04;96098.81;5001635;28;20184;-68
2021/11/25 01:43:38;;;;;;;24.97;15.20;;;;;;;4.95;59.81;96098.41;4994570;28;20543;-70
2021/11/25 01:46:17;;;;;;;30.97;16.90;;;;;;;4.88;59.43;96093.75;4996186;28;20625;-69
2021/11/25 01:48:44;;;;;;;32.17;15.30;;;;;;;4.97;59.58;96102.47;4998907;28;20425;-69
2021/11/25 01:51:10;;;;;;;31.20;16.53;;;;;;;4.87;59.59;96102.50;4998798;28;20419;-69
2021/11/25 01:53:36;;;;;;;28.17;15.70;;;;;;;4.98;59.92;96098.91;4990183;28;20535;-69
2021/11/25 01:56:04;;;;;;;27.57;14.70;;;;;;;5.02;60.00;96087.28;4989272;28;20568;-69
2021/11/25 01:58:29;;;;;;;27.50;15.80;;;;;;;4.98;60.03;96091.13;4997290;28;20420;-69
2021/11/25 02:00:56;;;;;;;29.00;15.17;;;;;;;5.00;59.75;96085.78;5000155;28;20545;-69
2021/11/25 02:03:23;;;;;;;30.07;15.90;;;;;;;4.91;60.01;96083.09;4995363;28;20193;-68
2021/11/25 02:05:49;;;;;;;28.00;15.00;;;;;;;5.03;59.58;96086.34;5000356;28;20432;-69
2021/11/25 02:08:15;;;;;;;28.20;16.43;;;;;;;4.98;59.95;96083.34;4993847;28;20435;-70
2021/11/25 02:10:44;;;;;;;27.00;15.20;;;;;;;4.80;59.65;96082.44;4997533;28;20782;-70
2021/11/25 02:13:10;;;;;;;28.40;15.97;;;;;;;4.73;60.16;96074.41;5004572;28;20184;-70
2021/11/25 02:15:37;;;;;;;25.47;15.13;;;;;;;4.94;59.65;96079.38;4997405;28;20451;-69
2021/11/25 02:18:06;;;;;;;28.40;15.17;;;;;;;5.00;59.93;96065.84;5003421;28;20458;-70
2021/11/25 02:20:36;;;;;;;33.13;16.40;;;;;;;4.98;59.89;96057.38;4994252;28;20432;-70
2021/11/25 02:23:03;;;;;;;29.53;16.20;;;;;;;4.95;59.80;96055.06;4993881;28;20482;-70
2021/11/25 02:25:29;;;;;;;27.73;16.40;;;;;;;4.88;59.88;96056.59;4993098;28;20499;-69
2021/11/25 02:27:54;;;;;;;29.87;16.80;;;;;;;4.95;60.06;96049.84;4977949;28;20963;-69
2021/11/25 02:30:20;;;;;;;27.70;15.67;;;;;;;4.86;60.50;96054.13;4992664;28;20433;-70
2021/11/25 02:32:46;;;;;;;32.00;16.80;;;;;;;4.92;59.78;96055.34;4976369;28;20231;-69
2021/11/25 02:35:16;;;;;;;24.70;15.10;;;;;;;4.78;60.32;96053.25;4982427;28;20316;-69
2021/11/25 02:37:42;;;;;;;31.37;17.10;;;;;;;4.84;60.54;96048.31;4967988;28;20447;-69
2021/11/25 02:40:17;;;;;;;32.47;17.27;;;;;;;4.79;60.08;96047.09;4993025;28;20425;-69
2021/11/25 02:42:43;;;;;;;34.00;17.17;;;;;;;4.90;59.72;96049.50;4993946;28;20181;-70
2021/11/25 02:45:09;;;;;;;29.93;16.70;;;;;;;4.74;60.40;96056.13;4993442;28;20436;-70
2021/11/25 02:47:35;;;;;;;31.67;17.00;;;;;;;4.78;60.35;96050.66;4977363;28;20417;-70
2021/11/25 02:50:00;;;;;;;32.63;18.00;;;;;;;4.23;61.93;96047.03;4995565;28;20442;-69
2021/11/25 02:52:26;;;;;;;30.23;17.43;;;;;;;4.57;60.57;96049.91;4977570;28;20185;-69
2021/11/25 02:54:52;;;;;;;31.17;16.63;;;;;;;4.44;61.46;96050.22;4992948;28;20699;-69
2021/11/25 02:57:17;;;;;;;31.20;16.80;;;;;;;4.19;61.83;96032.69;4993329;28;20678;-69
2021/11/25 02:59:43;;;;;;;30.77;16.30;;;;;;;4.60;60.92;96031.44;4992824;28;20425;-69
2021/11/25 03:02:09;;;;;;;31.17;17.33;;;;;;;4.51;60.48;96029.72;4994026;28;20680;-70
2021/11/25 03:04:35;;;;;;;28.90;15.03;;;;;;;4.33;61.59;96027.06;4992378;28;20568;-69
2021/11/25 03:07:01;;;;;;;28.60;17.50;;;;;;;4.64;61.09;96026.81;4983997;28;20184;-69
2021/11/25 03:09:27;;;;;;;32.43;17.00;;;;;;;4.60;61.06;96017.66;5002335;28;20187;-69
2021/11/25 03:11:53;;;;;;;32.87;17.80;;;;;;;4.65;60.63;96023.25;4999873;28;20206;-70
2021/11/25 03:14:19;;;;;;;34.07;17.60;;;;;;;4.65;60.67;96019.81;5001850;28;20456;-69
2021/11/25 03:16:45;;;;;;;30.87;16.50;;;;;;;4.78;60.16;96022.09;4993381;28;20424;-70
2021/11/25 03:19:12;;;;;;;33.20;16.63;;;;;;;4.87;60.26;96019.44;5000665;28;20177;-69
2021/11/25 03:21:38;;;;;;;35.20;18.40;;;;;;;4.80;60.03;96022.75;4977232;28;20181;-69
2021/11/25 03:24:04;;;;;;;32.40;16.90;;;;;;;4.80;60.50;96012.38;4975712;28;20554;-70
2021/11/25 03:26:30;;;;;;;35.63;18.73;;;;;;;4.60;60.23;96022.84;4992266;28;20207;-69
2021/11/25 03:28:59;;;;;;;31.70;16.67;;;;;;;4.71;60.08;96009.69;4982258;28;20428;-69
2021/11/25 03:31:28;;;;;;;31.97;18.20;;;;;;;4.85;59.92;96010.16;4992355;28;20184;-69
2021/11/25 03:33:55;;;;;;;29.63;16.77;;;;;;;4.90;60.08;96013.16;4991513;28;20490;-69
2021/11/25 03:36:21;;;;;;;32.57;16.70;;;;;;;4.96;59.53;96009.16;4974243;28;20487;-69
2021/11/25 03:38:47;;;;;;;30.33;17.10;;;;;;;4.34;60.77;96007.94;4991943;28;20915;-70
2021/11/25 03:41:13;;;;;;;30.20;16.10;;;;;;;4.48;60.43;96011.03;4991945;28;20500;-69
2021/11/25 03:43:39;;;;;;;28.77;16.00;;;;;;;4.42;61.52;96007.22;4983368;28;20193;-69
2021/11/25 03:46:05;;;;;;;33.03;16.50;;;;;;;4.36;61.73;96000.00;4991476;28;20432;-69
2021/11/25 03:48:31;;;;;;;32.10;16.90;;;;;;;4.02;62.30;96001.38;4991514;28;20204;-69
2021/11/25 03:50:58;;;;;;;33.53;16.17;;;;;;;3.99;62.57;96001.66;4974006;28;20475;-70
2021/11/25 03:53:24;;;;;;;30.57;16.77;;;;;;;4.28;61.91;96009.34;4990851;28;20206;-68
2021/11/25 03:55:50;;;;;;;32.23;17.10;;;;;;;4.08;62.64;96003.38;4991693;28;20495;-68
2021/11/25 03:58:16;;;;;;;31.00;17.50;;;;;;;3.66;64.20;96011.50;4991086;28;20180;-68
2021/11/25 04:00:41;;;;;;;30.93;16.60;;;;;;;3.20;65.40;96013.88;4991721;28;20416;-68
2021/11/25 04:03:07;;;;;;;36.40;17.97;;;;;;;3.69;64.51;96013.84;4991372;28;20663;-69
2021/11/25 04:05:33;;;;;;;34.03;18.77;;;;;;;3.86;64.03;96004.53;4991233;28;20205;-68
2021/11/25 04:07:58;;;;;;;33.20;18.30;;;;;;;4.20;62.66;96006.63;4990768;28;20181;-68
2021/11/25 04:10:24;;;;;;;34.20;18.13;;;;;;;4.20;62.64;96001.44;4990819;28;20431;-68
2021/11/25 04:12:50;;;;;;;35.17;18.77;;;;;;;4.25;62.45;95994.03;4991492;28;20510;-69
2021/11/25 04:15:18;;;;;;;32.53;17.47;;;;;;;4.48;62.67;96003.25;4993718;28;20460;-69
2021/11/25 04:17:44;;;;;;;33.57;17.50;;;;;;;4.53;62.07;95990.66;4976454;28;20177;-71
2021/11/25 04:20:10;;;;;;;32.90;17.77;;;;;;;4.40;61.83;95986.63;4991403;28;20508;-68
2021/11/25 04:22:36;;;;;;;38.30;17.80;;;;;;;4.45;61.49;95992.19;4992068;28;20662;-69
2021/11/25 04:25:04;;;;;;;32.60;18.30;;;;;;;4.60;61.70;95989.91;4973636;28;20538;-69
2021/11/25 04:27:30;;;;;;;36.20;19.87;;;;;;;4.64;61.87;95990.47;4990735;28;20192;-69
2021/11/25 04:30:08;;;;;;;35.10;18.83;;;;;;;4.69;61.33;95990.03;4994486;28;20421;-70
2021/11/25 04:35:28;;;;;;;33.40;18.27;;;;;;;4.64;61.10;95992.25;5004244;28;20498;-69
2021/11/25 04:37:54;;;;;;;35.40;18.17;;;;;;;4.65;60.65;95989.50;4999104;28;20423;-70
2021/11/25 04:40:20;;;;;;;30.17;16.47;;;;;;;4.62;60.61;95984.59;4994814;28;20455;-70
2021/11/25 04:42:46;;;;;;;36.33;18.63;;;;;;;4.72;61.01;95976.78;4995555;28;20910;-69
2021/11/25 04:45:11;;;;;;;32.57;17.80;;;;;;;4.68;61.58;95978.00;4994160;28;20201;-70
2021/11/25 04:47:37;;;;;;;33.03;17.30;;;;;;;4.69;60.69;95985.66;4997721;28;20550;-70
2021/11/25 04:50:04;;;;;;;35.13;18.93;;;;;;;4.56;61.29;95980.81;4999613;28;20204;-69
2021/11/25 04:52:30;;;;;;;36.00;18.60;;;;;;;4.09;62.33;95984.28;4994799;28;20208;-69
2021/11/25 04:54:55;;;;;;;42.03;20.30;;;;;;;4.30;62.82;95978.06;4985185;28;20571;-70
2021/11/25 04:57:21;;;;;;;45.67;20.57;;;;;;;4.01;62.86;95986.78;4994272;28;20180;-69
2021/11/25 04:59:46;;;;;;;38.43;19.10;;;;;;;3.91;63.83;95967.81;4976678;28;20235;-69
2021/11/25 05:02:12;;;;;;;41.37;19.37;;;;;;;4.26;62.82;95963.75;4993800;28;20220;-69
2021/11/25 05:04:38;;;;;;;48.07;20.33;;;;;;;3.73;64.21;95978.09;4993748;28;20209;-68
2021/11/25 05:07:03;;;;;;;61.30;23.83;;;;;;;2.94;66.45;95972.97;4994662;28;20258;-68
2021/11/25 05:09:29;;;;;;;40.80;19.30;;;;;;;3.65;64.85;95965.84;4985299;28;20632;-68
2021/11/25 05:11:54;;;;;;;65.73;24.67;;;;;;;3.61;65.05;95969.66;4968955;28;20247;-68
2021/11/25 05:14:20;;;;;;;35.63;18.20;;;;;;;3.82;63.95;95966.91;4994483;28;20278;-68
2021/11/25 05:16:46;;;;;;;36.50;19.30;;;;;;;3.51;65.21;95982.63;4994088;28;20846;-70
2021/11/25 05:19:15;;;;;;;36.60;18.80;;;;;;;3.50;65.20;95979.22;4960227;28;20248;-68
2021/11/25 05:21:41;;;;;;;36.50;20.30;;;;;;;3.17;65.83;95977.88;4986384;28;20192;-73
2021/11/25 05:24:07;;;;;;;35.40;19.17;;;;;;;3.47;65.61;95989.88;4994764;28;20451;-69
2021/11/25 05:26:32;;;;;;;36.90;18.90;;;;;;;3.53;65.33;95968.56;4944584;28;20426;-69
2021/11/25 05:28:58;;;;;;;37.60;19.37;;;;;;;3.29;65.39;95973.38;4993838;28;20682;-70
2021/11/25 05:31:24;;;;;;;38.10;18.63;;;;;;;3.67;65.33;95967.34;4993644;28;20272;-70
2021/11/25 05:33:50;;;;;;;38.63;19.10;;;;;;;3.79;64.37;95960.22;4974726;28;20212;-70
2021/11/25 05:36:15;;;;;;;33.43;18.30;;;;;;;4.03;63.67;95963.28;4997302;28;20177;-70
2021/11/25 05:38:41;;;;;;;37.13;18.10;;;;;;;3.91;63.14;95963.47;4994695;28;20519;-70
2021/11/25 05:41:06;;;;;;;36.80;18.33;;;;;;;4.14;63.13;95976.91;4993491;28;20263;-69
2021/11/25 05:43:32;;;;;;;33.73;17.13;;;;;;;4.01;63.92;95976.41;5002293;28;20605;-69
2021/11/25 05:45:58;;;;;;;32.33;16.73;;;;;;;4.17;63.14;95978.38;4999567;28;20187;-70
2021/11/25 05:48:24;;;;;;;33.53;17.20;;;;;;;4.32;62.61;95978.72;4993502;28;20690;-69
2021/11/25 05:50:50;;;;;;;39.97;18.77;;;;;;;4.18;62.56;95980.03;5005777;28;20424;-70
2021/11/25 05:53:18;;;;;;;32.90;17.23;;;;;;;4.32;62.49;95978.72;4978732;28;20485;-69
2021/11/25 05:55:44;;;;;;;39.47;17.60;;;;;;;4.36;61.98;95980.09;4996429;28;20527;-70
2021/11/25 05:58:10;;;;;;;37.00;19.30;;;;;;;4.35;62.68;95972.47;4984367;28;20484;-69
2021/11/25 06:00:35;;;;;;;35.10;17.37;;;;;;;4.52;62.01;95973.47;5001442;28;20969;-69
2021/11/25 06:03:01;;;;;;;29.93;17.00;;;;;;;4.54;61.65;95982.72;4993385;28;20193;-69
2021/11/25 06:05:27;;;;;;;33.63;17.97;;;;;;;4.67;61.79;95974.59;4994073;28;20264;-69
2021/11/25 06:07:53;;;;;;;30.60;17.47;;;;;;;4.74;61.58;95975.66;5001148;28;20844;-70
2021/11/25 06:10:20;;;;;;;36.13;18.70;;;;;;;4.79;60.96;95975.22;5008950;28;20513;-69
2021/11/25 06:12:46;;;;;;;33.83;17.60;;;;;;;4.62;61.58;95976.81;4998906;28;20412;-69
2021/11/25 06:15:12;;;;;;;37.10;18.90;;;;;;;4.61;61.15;95977.78;4997224;28;20899;-69
2021/11/25 06:17:38;;;;;;;36.40;19.67;;;;;;;4.60;61.48;95974.34;5018554;28;20424;-70
2021/11/25 06:20:10;;;;;;;44.50;18.93;;;;;;;4.59;61.40;95984.88;5006573;28;20204;-71
2021/11/25 06:22:37;;;;;;;37.97;19.23;;;;;;;4.61;61.69;95977.78;5000250;28;20177;-68
2021/11/25 06:25:03;;;;;;;36.67;19.37;;;;;;;4.65;61.29;95979.13;4994695;28;20514;-69
2021/11/25 06:27:28;;;;;;;33.77;17.57;;;;;;;4.66;61.36;95980.78;5009092;28;20485;-70
2021/11/25 06:29:54;;;;;;;51.43;20.10;;;;;;;4.64;61.34;95980.09;4993661;28;20519;-70
2021/11/25 06:32:19;;;;;;;38.37;18.50;;;;;;;4.71;61.76;95978.53;4989669;28;20211;-71
2021/11/25 06:34:45;;;;;;;33.67;18.13;;;;;;;4.86;61.36;95991.03;5008840;28;20222;-70
2021/11/25 06:37:10;;;;;;;35.80;19.07;;;;;;;4.61;61.11;95988.16;5007104;28;20200;-69
2021/11/25 06:39:36;;;;;;;32.97;17.27;;;;;;;4.83;60.84;95991.31;5009825;28;20208;-68
2021/11/25 06:42:02;;;;;;;33.20;18.37;;;;;;;4.55;61.76;95984.38;5000043;28;20189;-69
2021/11/25 06:44:27;;;;;;;33.03;18.03;;;;;;;4.39;62.34;95985.00;5011108;28;20702;-69
2021/11/25 06:46:53;;;;;;;34.87;17.60;;;;;;;4.52;61.83;95984.66;4982227;28;20185;-69
2021/11/25 06:49:18;;;;;;;39.77;19.00;;;;;;;4.53;61.32;95982.88;4993484;28;20264;-68
2021/11/25 06:51:44;;;;;;;33.30;17.17;;;;;;;4.55;62.03;95986.13;4997123;28;20540;-70
2021/11/25 06:54:10;;;;;;;35.30;18.53;;;;;;;4.61;61.34;95985.56;4995107;28;20394;-70
2021/11/25 06:56:35;;;;;;;36.30;17.47;;;;;;;4.53;61.95;95990.66;4952299;28;20208;-69
2021/11/25 06:59:01;;;;;;;38.23;18.17;;;;;;;4.60;61.06;95987.31;5007183;28;20260;-69
2021/11/25 07:01:27;;;;;;;39.40;19.30;;;;;;;4.45;62.12;95987.00;4996181;28;20188;-69
2021/11/25 07:03:53;;;;;;;32.50;17.20;;;;;;;4.49;62.18;95984.13;4999139;28;20200;-69
2021/11/25 07:06:18;;;;;;;37.20;18.43;;;;;;;4.58;61.42;95993.63;4991609;28;21136;-69
2021/11/25 07:08:44;;;;;;;34.80;18.90;;;;;;;4.24;62.61;95981.22;4992927;28;20196;-71
2021/11/25 07:11:09;;;;;;;35.90;19.87;;;;;;;4.36;62.51;95987.03;4992829;28;20177;-69
2021/11/25 07:13:35;;;;;;;35.10;18.30;;;;;;;4.22;62.76;95986.53;5009544;28;20680;-69
2021/11/25 07:16:01;;;;;;;33.33;18.40;;;;;;;4.44;62.61;95990.56;4993053;28;20320;-70
2021/11/25 07:18:26;;;;;;;39.33;20.17;;;;;;;4.31;62.17;96000.44;5000850;28;20268;-69
2021/11/25 07:20:52;;;;;;;36.60;18.53;;;;;;;4.13;63.76;96016.75;4992003;28;20211;-69
2021/11/25 07:23:18;;;;;;;39.80;19.40;;;;;;;4.42;62.79;96018.41;4984941;28;20192;-70
2021/11/25 07:25:43;;;;;;;34.53;19.13;;;;;;;4.49;61.64;96013.47;4985827;28;20187;-69
2021/11/25 07:28:09;;;;;;;38.20;19.57;;;;;;;4.55;62.47;96012.91;5012156;28;20190;-71
2021/11/25 07:30:35;;;;;;;41.23;20.80;;;;;;;4.58;62.32;96009.19;5001058;28;20197;-69
2021/11/25 07:33:00;;;;;;;36.70;18.97;;;;;;;4.75;61.20;96016.22;4993439;28;20177;-70
2021/11/25 07:35:26;;;;;;;34.63;17.73;;;;;;;4.50;61.74;96019.50;4984437;28;20213;-68
2021/11/25 07:37:53;;;;;;;36.43;19.20;;;;;;;4.51;61.42;96023.72;5012688;28;20262;-68
2021/11/25 07:40:22;;;;;;;37.67;19.80;;;;;;;4.69;62.11;96014.19;4986466;28;20189;-69
2021/11/25 07:42:48;;;;;;;33.93;18.50;;;;;;;4.31;62.38;96008.22;4993281;28;20420;-70
2021/11/25 07:45:14;;;;;;;35.37;18.70;;;;;;;4.45;62.21;95996.56;4993326;28;20432;-68
2021/11/25 07:47:39;;;;;;;41.23;19.90;;;;;;;4.26;62.00;95994.88;4985729;28;20474;-69
2021/11/25 07:50:11;;;;;;;40.57;19.53;;;;;;;4.37;62.08;95994.69;4992770;28;20256;-70
2021/11/25 07:52:37;;;;;;;38.77;20.13;;;;;;;3.88;63.29;96000.03;4994664;28;20829;-69
2021/11/25 07:55:10;;;;;;;41.57;21.20;;;;;;;3.56;65.36;95997.75;4996473;28;20492;-70
2021/11/25 07:57:38;;;;;;;38.30;20.27;;;;;;;4.18;63.37;95989.56;5005167;28;20574;-69
2021/11/25 08:00:04;;;;;;;36.57;18.90;;;;;;;4.33;62.89;95993.34;5000752;28;20447;-70
2021/11/25 08:02:32;;;;;;;43.43;19.33;;;;;;;4.32;62.57;95994.28;4978120;28;20504;-67
2021/11/25 08:04:58;;;;;;;42.30;18.40;;;;;;;4.29;63.30;96000.59;4997765;28;20452;-69
2021/11/25 08:07:23;;;;;;;41.07;21.30;;;;;;;4.27;63.18;96001.69;5001762;28;20435;-69
2021/11/25 08:09:49;;;;;;;39.50;19.23;;;;;;;4.09;63.29;95997.25;4992791;28;20177;-69
2021/11/25 08:12:14;;;;;;;46.77;22.50;;;;;;;4.33;62.56;96000.31;4996980;28;20185;-72
2021/11/25 08:14:40;;;;;;;37.57;19.10;;;;;;;4.51;62.08;95987.41;4993391;28;20263;-70
2021/11/25 08:17:08;;;;;;;39.07;19.63;;;;;;;4.51;62.09;95979.63;4993727;28;20204;-69
2021/11/25 08:19:34;;;;;;;37.53;19.40;;;;;;;4.64;62.08;95977.50;5002717;28;20258;-68
2021/11/25 08:21:59;;;;;;;48.13;20.07;;;;;;;4.61;62.32;95975.19;5000528;28;20425;-69
2021/11/25 08:24:25;;;;;;;41.40;20.13;;;;;;;4.58;62.05;95984.09;4981814;28;20678;-70
2021/11/25 08:26:52;;;;;;;38.40;18.93;;;;;;;4.62;62.17;95984.59;4992275;28;20188;-70
2021/11/25 08:29:18;;;;;;;34.43;18.63;;;;;;;4.69;62.34;95974.47;4972143;28;20429;-69
2021/11/25 08:31:43;;;;;;;41.00;21.07;;;;;;;4.66;62.26;95970.38;4994593;28;20486;-69
2021/11/25 08:34:09;;;;;;;38.90;20.90;;;;;;;4.79;61.84;95971.81;4991736;28;20209;-69
2021/11/25 08:36:34;;;;;;;37.10;20.80;;;;;;;4.94;61.40;95972.94;4992311;28;20272;-69
2021/11/25 08:39:00;;;;;;;41.10;20.97;;;;;;;4.86;61.12;95975.44;4996836;28;20189;-71
2021/11/25 08:41:25;;;;;;;35.97;19.13;;;;;;;4.93;60.95;95973.88;4977076;28;20189;-70
2021/11/25 08:43:52;;;;;;;35.53;19.07;;;;;;;5.02;60.78;95970.44;4991908;28;20342;-69
2021/11/25 08:46:18;;;;;;;35.83;19.30;;;;;;;5.06;61.14;95979.53;4991978;28;20754;-70
2021/11/25 08:48:43;;;;;;;36.13;19.43;;;;;;;4.98;60.87;95982.06;4981457;28;20436;-70
2021/11/25 08:51:10;;;;;;;39.00;19.47;;;;;;;5.13;60.73;95971.97;4991559;28;20181;-68
2021/11/25 08:53:37;;;;;;;40.57;20.27;;;;;;;5.15;59.43;95966.66;4999324;28;20217;-69
2021/11/25 08:56:05;;;;;;;37.00;18.87;;;;;;;5.13;60.67;95969.38;4992139;28;20436;-69
2021/11/25 08:58:32;;;;;;;35.10;17.97;;;;;;;5.01;60.68;95961.00;5007768;28;20798;-68
2021/11/25 09:00:58;;;;;;;37.53;19.00;;;;;;;5.13;60.61;95965.97;4992158;28;20425;-69
2021/11/25 09:03:24;;;;;;;36.53;19.20;;;;;;;5.31;60.72;95961.56;4957515;28;20444;-68
2021/11/25 09:05:49;;;;;;;33.50;19.07;;;;;;;5.15;59.55;95964.03;4998535;28;20818;-69
2021/11/25 09:08:15;;;;;;;33.00;18.73;;;;;;;5.19;60.08;95965.38;4971784;28;20650;-72
2021/11/25 09:10:41;;;;;;;37.37;17.30;;;;;;;4.71;61.54;95968.16;4969993;28;20661;-69
2021/11/25 09:13:06;;;;;;;32.97;16.43;;;;;;;4.49;62.23;95976.34;4990495;28;20801;-68
2021/11/25 09:15:39;;;;;;;33.80;16.47;;;;;;;4.41;63.29;95980.47;5002065;28;20212;-68
2021/11/25 09:18:05;;;;;;;35.73;16.90;;;;;;;4.69;62.32;95975.28;5004474;28;20177;-69
2021/11/25 09:20:33;;;;;;;36.17;18.37;;;;;;;4.57;62.08;95979.03;4998719;28;20452;-69
2021/11/25 09:23:07;;;;;;;32.40;16.10;;;;;;;4.08;63.85;95977.47;4993901;28;20540;-68
2021/11/25 09:25:33;;;;;;;35.57;18.20;;;;;;;3.49;65.77;95982.78;4994267;28;20468;-69
2021/11/25 09:28:00;;;;;;;32.70;18.00;;;;;;;4.00;65.05;95982.53;4999248;28;20506;-70
2021/11/25 09:30:26;;;;;;;37.40;18.50;;;;;;;3.94;64.94;95983.09;4999232;28;20808;-67
2021/11/25 09:32:51;;;;;;;37.40;17.13;;;;;;;4.40;64.24;95984.03;5001117;28;20424;-70
2021/11/25 09:35:18;;;;;;;40.83;17.60;;;;;;;4.82;63.10;95979.28;4977222;28;20628;-69
2021/11/25 09:37:44;;;;;;;38.47;17.30;;;;;;;5.08;61.73;95980.22;4984992;28;20181;-71
2021/11/25 09:40:20;;;;;;;40.17;19.70;;;;;;;4.89;61.50;95980.34;4994850;28;20479;-70
2021/11/25 09:42:46;;;;;;;36.33;18.17;;;;;;;3.86;65.03;95983.00;5002541;28;20185;-69
2021/11/25 09:45:14;;;;;;;38.73;17.03;;;;;;;3.94;65.19;95990.88;4993567;28;20448;-69
2021/11/25 09:47:40;;;;;;;42.20;20.17;;;;;;;3.66;65.49;95988.19;4986755;28;20580;-69
2021/11/25 09:50:06;;;;;;;42.63;20.63;;;;;;;3.70;65.75;95999.94;4985276;28;20436;-67
2021/11/25 09:52:31;;;;;;;37.77;19.47;;;;;;;3.78;65.62;95997.44;4994707;28;20432;-69
2021/11/25 09:54:57;;;;;;;37.43;19.87;;;;;;;4.06;64.80;95992.34;4994397;28;20583;-69
2021/11/25 09:57:23;;;;;;;37.03;18.37;;;;;;;4.53;62.94;95991.47;4993883;28;20185;-68
2021/11/25 09:59:48;;;;;;;29.90;15.40;;;;;;;4.38;63.89;95992.91;4976803;28;20656;-67
2021/11/25 10:02:14;;;;;;;36.60;17.93;;;;;;;4.50;63.22;95996.16;4993940;28;20197;-70
2021/11/25 10:04:39;;;;;;;39.83;18.63;;;;;;;4.84;62.54;95983.41;4993881;28;20669;-69
2021/11/25 10:07:05;;;;;;;40.40;18.60;;;;;;;4.63;62.47;95994.03;4993934;28;20185;-68
2021/11/25 10:09:36;;;;;;;38.00;18.73;;;;;;;4.79;62.68;95993.38;4979224;28;20189;-70
2021/11/25 10:12:37;;;;;;;37.27;18.63;;;;;;;4.72;62.21;95985.38;5008015;28;20252;-69
2021/11/25 10:15:28;;;;;;;34.30;17.73;;;;;;;4.80;62.10;95984.63;4989327;28;20469;-70
2021/11/25 10:17:54;;;;;;;36.13;17.43;;;;;;;4.96;61.19;95991.78;5015641;28;20428;-71
2021/11/25 10:20:20;;;;;;;39.53;19.13;;;;;;;4.65;62.50;95989.50;5017386;28;20481;-68
2021/11/25 10:23:01;;;;;;;41.40;19.93;;;;;;;4.94;61.92;95985.91;4994814;28;20195;-68
2021/11/25 10:26:05;;;;;;;32.80;18.63;;;;;;;4.90;61.92;95979.41;4999195;28;20467;-68
2021/11/25 10:28:39;;;;;;;39.60;18.10;;;;;;;5.00;61.39;95977.53;4993597;28;20435;-70
2021/11/25 10:31:11;;;;;;;39.07;20.00;;;;;;;5.15;60.62;95979.63;4975749;28;20416;-67
2021/11/25 10:33:57;;;;;;;38.03;20.27;;;;;;;5.27;60.32;95980.22;4993422;28;20456;-68
2021/11/25 10:36:50;;;;;;;33.90;18.20;;;;;;;5.37;60.09;95962.75;5001483;28;20431;-67
2021/11/25 10:41:55;;;;;;;35.80;19.00;;;;;;;5.61;59.90;95956.09;4992394;28;20478;-68
2021/11/25 10:44:33;;;;;;;36.30;18.40;;;;;;;5.48;59.90;95959.13;4993336;28;20468;-68
2021/11/25 10:47:08;;;;;;;40.63;18.63;;;;;;;5.18;60.36;95959.38;4993057;28;20778;-69
2021/11/25 10:49:50;;;;;;;36.93;19.23;;;;;;;5.18;59.90;95959.38;4975386;28;20804;-67
2021/11/25 10:52:30;;;;;;;38.57;19.47;;;;;;;5.67;59.20;95958.91;4994756;28;20432;-68
2021/11/25 10:54:57;;;;;;;34.70;18.20;;;;;;;5.77;58.54;95953.63;4976603;28;20577;-72
2021/11/25 10:57:24;;;;;;;38.67;19.80;;;;;;;5.77;58.43;95958.03;4975396;28;20880;-69
2021/11/25 10:59:52;;;;;;;33.60;17.57;;;;;;;5.77;58.73;95955.44;4983767;28;20903;-70
2021/11/25 11:02:29;;;;;;;36.13;18.53;;;;;;;5.75;59.00;95965.16;4972834;28;20773;-70
2021/11/25 11:05:03;;;;;;;36.20;18.60;;;;;;;5.66;59.02;95956.47;5003610;28;20464;-69
2021/11/25 11:07:40;;;;;;;36.93;19.27;;;;;;;5.47;59.59;95954.88;4999197;28;20442;-67
2021/11/25 11:10:27;;;;;;;41.77;20.23;;;;;;;5.48;60.16;95951.31;5005788;28;20443;-68
2021/11/25 11:13:00;;;;;;;38.93;19.23;;;;;;;5.56;59.79;95942.78;4999808;28;20416;-69
2021/11/25 11:15:29;;;;;;;38.97;20.30;;;;;;;5.66;59.23;95946.91;4966531;28;20918;-70
2021/11/25 11:20:25;;;;;;;36.67;17.80;;;;;;;5.67;59.30;95943.31;4997849;28;20424;-68
2021/11/25 11:22:59;;;;;;;37.30;18.33;;;;;;;5.64;59.58;95946.25;4994634;28;20860;-69
2021/11/25 11:25:25;;;;;;;45.30;19.10;;;;;;;5.47;59.89;95936.69;4994118;28;20559;-69
2021/11/25 11:27:53;;;;;;;44.43;22.57;;;;;;;5.58;59.28;95938.25;4974413;28;20786;-69
2021/11/25 11:30:20;;;;;;;40.20;19.90;;;;;;;5.29;60.36;95937.56;4992334;28;20439;-70
2021/11/25 11:32:46;;;;;;;37.37;19.13;;;;;;;5.42;59.65;95928.56;4991994;28;20436;-70